Flugplatz Cologne Bonn

Bericht für EDDK

vom 01.12. um 08:20 UTC

Wind 11 kt aus 200°

Sichtweite 10 km oder mehr

gering bewölkt in 2500 ft

aufgebrochene Bewölkung in 3000 ft

Temperatur 9.0°C

Taupunkt 5.0°C

Luftfeuchtigkeit 76%

Luftdruck 995 hPa

EDDK 010820Z 20011KT 180V240 9999 FEW025 BKN030 09/05 Q0995 TEMPO 20015G25KT

Prognose für EDDK

vom 01.12. um 05:00 UTC

Zwischen 06:00 UTC und 11:00 UTC

Wind 15 kt aus 200° in Böen 25 kt

Sichtweite 10 km oder mehr

aufgebrochene Bewölkung in 2000 ft


Zwischen 06:00 UTC und 13:00 UTC zeitweise

Regen


Zwischen 11:00 UTC und 14:00 UTC zeitweise

Wind 20 kt aus 250° in Böen 30 kt


Zwischen 11:00 und 14:00 UTC übergehend zu

Wind 15 kt aus 260° in Böen 25 kt

Sichtweite 10 km oder mehr

aufgebrochene Bewölkung in 2000 ft


Zwischen 16:00 und 19:00 UTC übergehend zu

Wind 10 kt aus 270°

Sichtweite 10 km oder mehr

aufgebrochene Bewölkung in 2000 ft


Zwischen 19:00 UTC und 22:00 UTC zeitweise

Regenschauer

aufgebrochene Bewölkung in 2000 ft


Am 02.12. zwischen 04:00 UTC und 12:00 UTC zeitweise

Regenschauer

aufgebrochene Bewölkung in 1200 ft

TAF EDDK 010500Z 0106/0212 20015G25KT 9999 BKN020 TEMPO 0106/0113 RA BECMG 0111/0114 26015G25KT TEMPO 0111/0114 25020G30KT BECMG 0116/0119 27010KT TEMPO 0119/0122 SHRA BKN020CB TEMPO 0204/0212 SHRA BKN012CB
Impressum